Terminal Aerodrome Forecast
Issued by NWS

Current Version | Previous Version | Text Only | Print | Product List | Glossary Off
Versions: 1 2 3 4 5 6 7 8 9 10 11 12 13 14 15 16 17 18 19 20 21 22 23 24

000
FTUS41 KILN 231900 AAA
TAFLUK
TAF AMD
KLUK 231901Z 2319/2418 17004KT 3SM BR OVC007
      TEMPO 2319/2322 1 1/2SM BR OVC004
     FM232300 11003KT 4SM -SHRA BR OVC009
     FM240600 15005KT 5SM BR OVC011
     FM240900 14007KT 4SM -SHRA BR OVC009
     FM241600 19013G21KT P6SM VCSH OVC015
     FM241700 24018G32KT P6SM VCSH BKN025=

USA.gov is the U.S. government's official web portal to all federal, state and local government web resources and services.